Enchantment of the Seas — C6FZ7 — position and weather

sailwx.info

Track history (hours):
 
Tides and Currents Weather Stations Pressure Air Temp Water Temp Dewpoint Dewpoint Depression Visibility Wind Speed Wind Dir Waves Ship Positions

Enchantment of the Seas (Bahamas)

Last reported at 2020-Jan-18 14:56 UTC. Time now 2020-Jan-18 15:12 UTC.
Position N 20°29' W 086°59'.

Type: Passenger vessel. MMSI: 311733000.

Date/timePositionNaut miles runAvg speedWind from/ knotsBaromVisibWave heightAir tempDewpointWater temp
2020-Jan-18 14:56N 20°29' W 086°59'3 2.2
2020-Jan-18 13:30N 20°32' W 086°59'49117.2
2020-Jan-17 09:00N 27°18' W 092°00'16719.6 070 / 24 10.8 19.418.5
2020-Jan-17 00:30N 29°08' W 094°22'25 3.6
2020-Jan-16 17:29N 29°19' W 094°48'0 0.0
2020-Jan-16 16:59N 29°19' W 094°48'0 0.0
2020-Jan-16 13:59N 29°19' W 094°48'0 0.0
2020-Jan-16 12:59N 29°19' W 094°48'0 0.0
2020-Jan-16 12:29N 29°19' W 094°48'0 0.0
2020-Jan-16 11:59N 29°19' W 094°48'0 0.0
2020-Jan-16 10:59N 29°19' W 094°48'0 0.0
2020-Jan-16 09:26N 29°19' W 094°48'0 0.0
2020-Jan-16 08:29N 29°19' W 094°48'0 0.0
2020-Jan-16 04:29N 29°19' W 094°48'0 0.0
2020-Jan-16 03:59N 29°19' W 094°48'0 0.0
2020-Jan-16 03:29N 29°19' W 094°48'0 0.0
2020-Jan-16 02:29N 29°19' W 094°48'0 0.0
2020-Jan-16 01:29N 29°19' W 094°48'0 0.0
2020-Jan-15 23:29N 29°19' W 094°48'0 0.2
2020-Jan-15 22:30N 29°19' W 094°48'10 3.9
2020-Jan-15 19:56N 29°19' W 094°36'0 0.0
2020-Jan-15 19:26N 29°19' W 094°36'0 0.0
2020-Jan-15 17:59N 29°19' W 094°36'0 0.0
2020-Jan-15 14:00N 29°19' W 094°36'5 3.6
2020-Jan-15 12:30N 29°15' W 094°32'4 3.8
2020-Jan-15 11:27N 29°13' W 094°28'2814.6
2020-Jan-15 09:30N 28°57' W 094°01'57222.4
2020-Jan-14 08:00N 21°54' W 086°54'85 7.4 060 / 13 10.8 25.322.6
2020-Jan-13 20:27N 20°29' W 086°59'0 0.0
2020-Jan-13 18:00N 20°29' W 086°59'0 0.0
2020-Jan-13 17:00N 20°29' W 086°59'85 9.5
2020-Jan-13 08:00N 21°54' W 086°54'15813.8 090 / 15 10.8 25.522.6
2020-Jan-12 20:30N 21°21' W 089°41'0 0.0
2020-Jan-12 18:24N 21°21' W 089°41'0 0.0
2020-Jan-12 17:30N 21°21' W 089°41'0 0.0
2020-Jan-12 16:30N 21°21' W 089°41'0 0.0
2020-Jan-12 15:57N 21°21' W 089°41'0 0.0
2020-Jan-12 15:24N 21°21' W 089°41'0 0.0
2020-Jan-12 12:30N 21°21' W 089°41'1 0.9
2020-Jan-12 11:31N 21°21' W 089°41'1211.9
2020-Jan-12 10:31N 21°33' W 089°44'1811.8
2020-Jan-12 09:00N 21°48' W 089°54'40216.1 100 / 21 5.4 25.322.8
2020-Jan-11 08:00N 27°18' W 094°06'12115.0 170 / 33 5.4 23.721.4
2020-Jan-10 23:57N 29°16' W 094°35'511.8
2020-Jan-10 23:30N 29°20' W 094°40'8 1.3
2020-Jan-10 17:30N 29°19' W 094°48'0 0.0
2020-Jan-10 17:00N 29°19' W 094°48'0 0.0
2020-Jan-10 15:30N 29°19' W 094°48'1 0.2
2020-Jan-10 12:30N 29°19' W 094°47'9216.8
2020-Jan-10 07:00N 28°30' W 093°18'42019.1 150 / 21 10.8 22.019.0
2020-Jan-09 09:00N 23°18' W 088°06'18015.0 080 / 25 23.518.0
2020-Jan-08 20:58N 20°29' W 086°59'0 0.0
2020-Jan-08 20:25N 20°29' W 086°59'0 0.0
2020-Jan-08 19:28N 20°29' W 086°59'0 0.0
2020-Jan-08 18:58N 20°29' W 086°59'0 0.0
2020-Jan-08 17:55N 20°29' W 086°59'0 0.0
2020-Jan-08 17:28N 20°29' W 086°59'0 0.0
2020-Jan-08 15:28N 20°29' W 086°59'  
Track history (hours):
 
Tides and Currents Weather Stations Pressure Air Temp Water Temp Dewpoint Dewpoint Depression Visibility Wind Speed Wind Dir Waves Ship Positions

Enchantment of the Seas (Bahamas)

Last reported at 2020-Jan-18 14:56 UTC. Time now 2020-Jan-18 15:12 UTC.
Position N 20°29' W 086°59'.

Type: Passenger vessel. MMSI: 311733000.

Date/timePositionNaut miles runAvg speedWind from/ knotsBaromVisibWave heightAir tempDewpointWater temp
2020-Jan-18 14:56N 20°29' W 086°59'3 2.2
2020-Jan-18 13:30N 20°32' W 086°59'49117.2
2020-Jan-17 09:00N 27°18' W 092°00'16719.6 070 / 24 10.8 19.418.5
2020-Jan-17 00:30N 29°08' W 094°22'25 3.6
2020-Jan-16 17:29N 29°19' W 094°48'0 0.0
2020-Jan-16 16:59N 29°19' W 094°48'0 0.0
2020-Jan-16 13:59N 29°19' W 094°48'0 0.0
2020-Jan-16 12:59N 29°19' W 094°48'0 0.0
2020-Jan-16 12:29N 29°19' W 094°48'0 0.0
2020-Jan-16 11:59N 29°19' W 094°48'0 0.0
2020-Jan-16 10:59N 29°19' W 094°48'0 0.0
2020-Jan-16 09:26N 29°19' W 094°48'0 0.0
2020-Jan-16 08:29N 29°19' W 094°48'0 0.0
2020-Jan-16 04:29N 29°19' W 094°48'0 0.0
2020-Jan-16 03:59N 29°19' W 094°48'0 0.0
2020-Jan-16 03:29N 29°19' W 094°48'0 0.0
2020-Jan-16 02:29N 29°19' W 094°48'0 0.0
2020-Jan-16 01:29N 29°19' W 094°48'0 0.0
2020-Jan-15 23:29N 29°19' W 094°48'0 0.2
2020-Jan-15 22:30N 29°19' W 094°48'10 3.9
2020-Jan-15 19:56N 29°19' W 094°36'0 0.0
2020-Jan-15 19:26N 29°19' W 094°36'0 0.0
2020-Jan-15 17:59N 29°19' W 094°36'0 0.0
2020-Jan-15 14:00N 29°19' W 094°36'5 3.6
2020-Jan-15 12:30N 29°15' W 094°32'4 3.8
2020-Jan-15 11:27N 29°13' W 094°28'2814.6
2020-Jan-15 09:30N 28°57' W 094°01'57222.4
2020-Jan-14 08:00N 21°54' W 086°54'85 7.4 060 / 13 10.8 25.322.6
2020-Jan-13 20:27N 20°29' W 086°59'0 0.0
2020-Jan-13 18:00N 20°29' W 086°59'0 0.0
2020-Jan-13 17:00N 20°29' W 086°59'85 9.5
2020-Jan-13 08:00N 21°54' W 086°54'15813.8 090 / 15 10.8 25.522.6
2020-Jan-12 20:30N 21°21' W 089°41'0 0.0
2020-Jan-12 18:24N 21°21' W 089°41'0 0.0
2020-Jan-12 17:30N 21°21' W 089°41'0 0.0
2020-Jan-12 16:30N 21°21' W 089°41'0 0.0
2020-Jan-12 15:57N 21°21' W 089°41'0 0.0
2020-Jan-12 15:24N 21°21' W 089°41'0 0.0
2020-Jan-12 12:30N 21°21' W 089°41'1 0.9
2020-Jan-12 11:31N 21°21' W 089°41'1211.9
2020-Jan-12 10:31N 21°33' W 089°44'1811.8
2020-Jan-12 09:00N 21°48' W 089°54'40216.1 100 / 21 5.4 25.322.8
2020-Jan-11 08:00N 27°18' W 094°06'12115.0 170 / 33 5.4 23.721.4
2020-Jan-10 23:57N 29°16' W 094°35'511.8
2020-Jan-10 23:30N 29°20' W 094°40'8 1.3
2020-Jan-10 17:30N 29°19' W 094°48'0 0.0
2020-Jan-10 17:00N 29°19' W 094°48'0 0.0
2020-Jan-10 15:30N 29°19' W 094°48'1 0.2
2020-Jan-10 12:30N 29°19' W 094°47'9216.8
2020-Jan-10 07:00N 28°30' W 093°18'42019.1 150 / 21 10.8 22.019.0
2020-Jan-09 09:00N 23°18' W 088°06'18015.0 080 / 25 23.518.0
2020-Jan-08 20:58N 20°29' W 086°59'0 0.0
2020-Jan-08 20:25N 20°29' W 086°59'0 0.0
2020-Jan-08 19:28N 20°29' W 086°59'0 0.0
2020-Jan-08 18:58N 20°29' W 086°59'0 0.0
2020-Jan-08 17:55N 20°29' W 086°59'0 0.0
2020-Jan-08 17:28N 20°29' W 086°59'0 0.0
2020-Jan-08 15:28N 20°29' W 086°59'  

Dump ship's entire track history